createdAt,value
2016-08-26T00:00:40.049Z,0
2016-08-26T00:01:38.039Z,0
2016-08-26T00:02:38.093Z,0
2016-08-26T00:03:37.392Z,0
2016-08-26T00:04:38.063Z,0
2016-08-26T00:05:38.120Z,0
2016-08-26T00:06:39.491Z,0
2016-08-26T00:07:38.082Z,0
2016-08-26T00:08:38.088Z,0
2016-08-26T00:09:38.152Z,0
2016-08-26T00:10:39.513Z,0
2016-08-26T00:11:39.366Z,0
2016-08-26T00:12:37.411Z,0
2016-08-26T00:13:38.122Z,0
2016-08-26T00:14:38.134Z,0
2016-08-26T00:15:37.436Z,0
2016-08-26T00:16:38.166Z,0
2016-08-26T00:17:37.452Z,0
2016-08-26T00:18:38.164Z,0
2016-08-26T00:19:38.201Z,0
2016-08-26T00:20:38.890Z,0
2016-08-26T00:21:38.194Z,0
2016-08-26T00:22:41.143Z,0
2016-08-26T00:23:37.506Z,0
2016-08-26T00:24:37.538Z,0
2016-08-26T00:25:38.942Z,0
2016-08-26T00:26:37.533Z,0
2016-08-26T00:27:38.252Z,0
2016-08-26T00:28:38.961Z,0
2016-08-26T00:29:39.025Z,0
2016-08-26T00:30:39.699Z,0
2016-08-26T00:31:39.696Z,0
2016-08-26T00:32:38.292Z,0
2016-08-26T00:33:39.015Z,0
2016-08-26T00:34:38.363Z,0
2016-08-26T00:35:39.674Z,0
2016-08-26T00:36:39.042Z,0
2016-08-26T00:37:38.332Z,0
2016-08-26T00:38:38.339Z,0
2016-08-26T00:39:39.060Z,0
2016-08-26T00:40:39.776Z,0
2016-08-26T00:41:39.075Z,0
2016-08-26T00:42:39.798Z,0
2016-08-26T00:43:39.137Z,0
2016-08-26T00:44:38.447Z,0
2016-08-26T00:45:37.695Z,0
2016-08-26T00:46:39.732Z,0
2016-08-26T00:47:36.999Z,0
2016-08-26T00:48:37.710Z,0
2016-08-26T00:49:38.436Z,0
2016-08-26T00:50:38.444Z,0
2016-08-26T00:51:38.448Z,0
2016-08-26T00:52:38.459Z,0
2016-08-26T00:53:38.464Z,0
2016-08-26T00:54:37.767Z,0
2016-08-26T00:55:37.975Z,0
2016-08-26T00:56:39.194Z,0
2016-08-26T00:57:39.990Z,0
2016-08-26T00:58:39.922Z,0
2016-08-26T00:59:39.233Z,0
2016-08-26T01:00:37.819Z,0
2016-08-26T01:01:37.820Z,0
2016-08-26T01:02:38.542Z,0
2016-08-26T01:03:38.599Z,0
2016-08-26T01:04:39.976Z,0
2016-08-26T01:05:38.617Z,0
2016-08-26T01:06:39.468Z,0
2016-08-26T01:07:37.874Z,0
2016-08-26T01:08:39.491Z,0
2016-08-26T01:09:39.307Z,0
2016-08-26T01:10:39.314Z,0
2016-08-26T01:11:38.662Z,0
2016-08-26T01:12:37.971Z,0
2016-08-26T01:13:40.047Z,0
2016-08-26T01:14:40.064Z,0
2016-08-26T01:15:38.993Z,0
2016-08-26T01:16:37.945Z,0
2016-08-26T01:17:38.671Z,0
2016-08-26T01:18:39.390Z,0
2016-08-26T01:19:39.202Z,0
2016-08-26T01:20:38.696Z,0
2016-08-26T01:21:38.389Z,0
2016-08-26T01:22:39.412Z,0
2016-08-26T01:23:38.004Z,0
2016-08-26T01:24:40.135Z,0
2016-08-26T01:25:38.733Z,0
2016-08-26T01:26:38.031Z,0
2016-08-26T01:27:39.458Z,0
2016-08-26T01:28:38.762Z,0
2016-08-26T01:29:38.059Z,0
2016-08-26T01:30:39.578Z,0
2016-08-26T01:31:39.488Z,0
2016-08-26T01:32:40.821Z,0
2016-08-26T01:33:39.523Z,0
2016-08-26T01:34:40.278Z,0
2016-08-26T01:35:38.812Z,0
2016-08-26T01:36:39.576Z,0
2016-08-26T01:37:38.126Z,0
2016-08-26T01:38:38.850Z,0
2016-08-26T01:39:39.561Z,0
2016-08-26T01:40:39.575Z,0
2016-08-26T01:41:39.610Z,0
2016-08-26T01:42:39.581Z,0
2016-08-26T01:43:40.251Z,0
2016-08-26T01:44:38.891Z,0
2016-08-26T01:45:39.403Z,0
2016-08-26T01:46:38.905Z,0
2016-08-26T01:47:39.624Z,0
2016-08-26T01:48:39.628Z,0
2016-08-26T01:49:39.637Z,0
2016-08-26T01:50:38.232Z,0
2016-08-26T01:51:38.234Z,0
2016-08-26T01:52:39.008Z,0
2016-08-26T01:53:40.381Z,0
2016-08-26T01:54:38.318Z,0
2016-08-26T01:55:39.690Z,0
2016-08-26T01:56:38.729Z,0
2016-08-26T01:57:38.292Z,0
2016-08-26T01:58:39.713Z,0
2016-08-26T01:59:39.730Z,0
2016-08-26T02:00:39.730Z,0
2016-08-26T02:01:37.613Z,0
2016-08-26T02:02:38.350Z,0
2016-08-26T02:03:38.597Z,0
2016-08-26T02:04:39.810Z,0
2016-08-26T02:05:40.738Z,0
2016-08-26T02:06:39.830Z,0
2016-08-26T02:07:39.192Z,0
2016-08-26T02:08:39.087Z,0
2016-08-26T02:09:39.802Z,0
2016-08-26T02:10:39.156Z,0
2016-08-26T02:11:39.110Z,0
2016-08-26T02:12:39.875Z,0
2016-08-26T02:13:39.132Z,0
2016-08-26T02:14:39.846Z,0
2016-08-26T02:15:39.191Z,0
2016-08-26T02:16:40.342Z,0
2016-08-26T02:17:38.456Z,0
2016-08-26T02:18:38.713Z,0
2016-08-26T02:19:39.882Z,0
2016-08-26T02:20:40.599Z,0
2016-08-26T02:21:40.055Z,0
2016-08-26T02:22:39.202Z,0
2016-08-26T02:23:39.212Z,0
2016-08-26T02:24:37.804Z,0
2016-08-26T02:25:40.640Z,0
2016-08-26T02:26:39.230Z,0
2016-08-26T02:27:39.740Z,0
2016-08-26T02:28:39.250Z,0
2016-08-26T02:29:39.269Z,0
2016-08-26T02:30:40.681Z,0
2016-08-26T02:31:40.374Z,0
2016-08-26T02:32:38.578Z,0
2016-08-26T02:33:40.001Z,0
2016-08-26T02:34:39.302Z,0
2016-08-26T02:35:40.014Z,0
2016-08-26T02:36:39.312Z,0
2016-08-26T02:37:38.616Z,0
2016-08-26T02:38:40.689Z,0
2016-08-26T02:39:38.639Z,0
2016-08-26T02:40:39.196Z,0
2016-08-26T02:41:39.402Z,0
2016-08-26T02:42:40.791Z,0
2016-08-26T02:43:38.666Z,0
2016-08-26T02:44:40.086Z,0
2016-08-26T02:45:38.687Z,0
2016-08-26T02:46:38.691Z,0
2016-08-26T02:47:39.422Z,0
2016-08-26T02:48:39.420Z,0
2016-08-26T02:49:41.191Z,0
2016-08-26T02:50:40.140Z,0
2016-08-26T02:51:41.880Z,0
2016-08-26T02:52:40.866Z,0
2016-08-26T02:53:40.322Z,0
2016-08-26T02:54:38.761Z,0
2016-08-26T02:55:39.471Z,0
2016-08-26T02:56:40.948Z,0
2016-08-26T02:57:40.202Z,0
2016-08-26T02:58:38.794Z,0
2016-08-26T02:59:40.920Z,0
2016-08-26T03:00:40.063Z,0
2016-08-26T03:01:40.221Z,0
2016-08-26T03:02:39.542Z,0
2016-08-26T03:03:40.246Z,0
2016-08-26T03:04:39.745Z,0
2016-08-26T03:05:39.550Z,0
2016-08-26T03:06:38.850Z,0
2016-08-26T03:07:38.206Z,0
2016-08-26T03:08:38.918Z,0
2016-08-26T03:09:39.584Z,0
2016-08-26T03:10:39.641Z,0
2016-08-26T03:11:39.600Z,0
2016-08-26T03:12:39.863Z,0
2016-08-26T03:13:42.374Z,0
2016-08-26T03:14:41.034Z,0
2016-08-26T03:15:39.935Z,0
2016-08-26T03:16:38.983Z,0
2016-08-26T03:17:39.663Z,0
2016-08-26T03:18:40.359Z,0
2016-08-26T03:19:39.670Z,0
2016-08-26T03:20:39.673Z,0
2016-08-26T03:21:40.385Z,0
2016-08-26T03:22:39.691Z,0
2016-08-26T03:23:39.704Z,0
2016-08-26T03:24:40.809Z,0
2016-08-26T03:25:40.416Z,0
2016-08-26T03:26:42.170Z,0
2016-08-26T03:27:39.727Z,0
2016-08-26T03:28:41.349Z,0
2016-08-26T03:29:39.742Z,0
2016-08-26T03:30:39.750Z,0
2016-08-26T03:31:41.170Z,0
2016-08-26T03:32:40.476Z,0
2016-08-26T03:33:39.075Z,0
2016-08-26T03:34:40.496Z,0
2016-08-26T03:35:41.001Z,0
2016-08-26T03:36:38.387Z,0
2016-08-26T03:37:39.810Z,0
2016-08-26T03:38:38.399Z,0
2016-08-26T03:39:40.886Z,0
2016-08-26T03:40:40.546Z,0
2016-08-26T03:41:40.540Z,0
2016-08-26T03:42:39.847Z,0
2016-08-26T03:43:39.147Z,0
2016-08-26T03:44:39.863Z,0
2016-08-26T03:45:39.167Z,0
2016-08-26T03:46:40.821Z,0
2016-08-26T03:47:39.887Z,0
2016-08-26T03:48:40.598Z,0
2016-08-26T03:49:41.325Z,0
2016-08-26T03:50:41.236Z,0
2016-08-26T03:51:39.916Z,0
2016-08-26T03:52:41.339Z,0
2016-08-26T03:53:39.225Z,0
2016-08-26T03:54:39.240Z,0
2016-08-26T03:55:40.654Z,0
2016-08-26T03:56:41.425Z,0
2016-08-26T03:57:40.679Z,0
2016-08-26T03:58:39.974Z,0
2016-08-26T03:59:42.143Z,0
2016-08-26T04:00:39.284Z,0
2016-08-26T04:01:42.656Z,0
2016-08-26T04:02:40.013Z,0
2016-08-26T04:03:41.930Z,0
2016-08-26T04:04:39.312Z,0
2016-08-26T04:05:39.336Z,0
2016-08-26T04:06:40.048Z,0
2016-08-26T04:07:40.049Z,0
2016-08-26T04:08:39.401Z,0
2016-08-26T04:09:39.359Z,0
2016-08-26T04:10:40.076Z,0
2016-08-26T04:11:40.080Z,0
2016-08-26T04:12:40.387Z,0
2016-08-26T04:13:40.143Z,0
2016-08-26T04:14:40.154Z,0
2016-08-26T04:15:40.815Z,0
2016-08-26T04:16:40.829Z,0
2016-08-26T04:17:40.172Z,0
2016-08-26T04:18:39.483Z,0
2016-08-26T04:19:40.138Z,0
2016-08-26T04:20:38.737Z,0
2016-08-26T04:21:39.452Z,0
2016-08-26T04:22:40.176Z,0
2016-08-26T04:23:40.669Z,0
2016-08-26T04:24:40.182Z,0
2016-08-26T04:25:39.486Z,0
2016-08-26T04:26:40.905Z,0
2016-08-26T04:27:40.201Z,0
2016-08-26T04:28:40.218Z,0
2016-08-26T04:29:40.227Z,0
2016-08-26T04:30:40.240Z,0
2016-08-26T04:31:40.955Z,0
2016-08-26T04:32:40.249Z,0
2016-08-26T04:33:40.973Z,0
2016-08-26T04:34:40.775Z,0
2016-08-26T04:35:39.567Z,0
2016-08-26T04:36:42.090Z,0
2016-08-26T04:37:40.990Z,0
2016-08-26T04:38:39.602Z,0
2016-08-26T04:39:41.016Z,0
2016-08-26T04:40:41.018Z,0
2016-08-26T04:41:40.324Z,0
2016-08-26T04:42:40.336Z,0
2016-08-26T04:43:41.393Z,5
2016-08-26T04:44:41.766Z,5
2016-08-26T04:45:40.397Z,5
2016-08-26T04:46:41.089Z,5
2016-08-26T04:47:41.750Z,5
2016-08-26T04:48:39.674Z,5
2016-08-26T04:49:42.977Z,5
2016-08-26T04:50:40.401Z,5
2016-08-26T04:51:40.410Z,5
2016-08-26T04:52:39.715Z,5
2016-08-26T04:53:41.127Z,5
2016-08-26T04:54:41.137Z,5
2016-08-26T04:55:40.435Z,5
2016-08-26T04:56:42.645Z,10
2016-08-26T04:57:40.452Z,10
2016-08-26T04:58:41.204Z,10
2016-08-26T04:59:40.470Z,10
2016-08-26T05:00:40.424Z,10
2016-08-26T05:01:39.779Z,10
2016-08-26T05:02:41.214Z,10
2016-08-26T05:03:39.808Z,10
2016-08-26T05:04:41.941Z,10
2016-08-26T05:05:40.528Z,10
2016-08-26T05:06:41.233Z,15
2016-08-26T05:07:42.080Z,15
2016-08-26T05:08:41.264Z,15
2016-08-26T05:09:42.115Z,15
2016-08-26T05:10:40.572Z,15
2016-08-26T05:11:42.998Z,15
2016-08-26T05:12:41.334Z,20
2016-08-26T05:13:39.979Z,20
2016-08-26T05:14:40.605Z,20
2016-08-26T05:15:40.599Z,20
2016-08-26T05:16:42.048Z,25
2016-08-26T05:17:40.624Z,25
2016-08-26T05:18:41.391Z,25
2016-08-26T05:19:39.942Z,25
2016-08-26T05:20:42.563Z,35
2016-08-26T05:21:40.654Z,50
2016-08-26T05:22:42.445Z,70
2016-08-26T05:23:40.672Z,90
2016-08-26T05:24:40.676Z,80
2016-08-26T05:25:41.399Z,45
2016-08-26T05:26:41.415Z,40
2016-08-26T05:27:40.709Z,75
2016-08-26T05:28:40.717Z,150
2016-08-26T05:29:40.722Z,145
2016-08-26T05:30:41.440Z,120
2016-08-26T05:31:42.290Z,80
2016-08-26T05:32:40.750Z,65
2016-08-26T05:33:40.760Z,50
2016-08-26T05:34:40.770Z,40
2016-08-26T05:35:41.482Z,35
2016-08-26T05:36:41.489Z,30
2016-08-26T05:37:40.785Z,30
2016-08-26T05:38:41.517Z,35
2016-08-26T05:39:40.808Z,40
2016-08-26T05:40:42.227Z,35
2016-08-26T05:41:41.534Z,35
2016-08-26T05:42:41.343Z,35
2016-08-26T05:43:41.548Z,35
2016-08-26T05:44:42.535Z,45
2016-08-26T05:45:41.564Z,60
2016-08-26T05:46:41.976Z,50
2016-08-26T05:47:40.175Z,55
2016-08-26T05:48:40.892Z,45
2016-08-26T05:49:40.190Z,50
2016-08-26T05:50:41.611Z,75
2016-08-26T05:51:42.323Z,75
2016-08-26T05:52:40.921Z,65
2016-08-26T05:53:41.630Z,50
2016-08-26T05:54:42.345Z,45
2016-08-26T05:55:42.979Z,60
2016-08-26T05:56:42.370Z,60
2016-08-26T05:57:42.119Z,65
2016-08-26T05:58:40.267Z,50
2016-08-26T05:59:40.990Z,45
2016-08-26T06:00:40.284Z,45
2016-08-26T06:01:41.705Z,50
2016-08-26T06:02:41.719Z,55
2016-08-26T06:03:42.436Z,50
2016-08-26T06:04:41.182Z,50
2016-08-26T06:05:41.743Z,55
2016-08-26T06:06:41.040Z,55
2016-08-26T06:07:41.761Z,50
2016-08-26T06:08:41.758Z,50
2016-08-26T06:09:41.775Z,55
2016-08-26T06:10:40.372Z,55
2016-08-26T06:11:41.088Z,60
2016-08-26T06:12:42.568Z,60
2016-08-26T06:13:41.864Z,55
2016-08-26T06:14:41.831Z,55
2016-08-26T06:15:43.090Z,60
2016-08-26T06:16:41.830Z,60
2016-08-26T06:17:43.684Z,65
2016-08-26T06:18:40.440Z,65
2016-08-26T06:19:42.113Z,65
2016-08-26T06:20:41.874Z,120
2016-08-26T06:21:41.169Z,90
2016-08-26T06:22:41.194Z,155
2016-08-26T06:23:41.187Z,155
2016-08-26T06:24:41.246Z,100
2016-08-26T06:25:41.918Z,130
2016-08-26T06:26:41.216Z,120
2016-08-26T06:27:41.223Z,95
2016-08-26T06:28:43.257Z,105
2016-08-26T06:29:39.842Z,110
2016-08-26T06:30:42.889Z,275
2016-08-26T06:31:41.968Z,110
2016-08-26T06:32:41.974Z,145
2016-08-26T06:33:39.908Z,165
2016-08-26T06:34:41.996Z,215
2016-08-26T06:35:42.742Z,245
2016-08-26T06:36:40.604Z,220
2016-08-26T06:37:43.374Z,290
2016-08-26T06:38:41.322Z,465
2016-08-26T06:39:42.935Z,645
2016-08-26T06:40:42.051Z,730
2016-08-26T06:41:42.096Z,740
2016-08-26T06:42:41.366Z,745
2016-08-26T06:43:41.376Z,765
2016-08-26T06:44:42.846Z,755
2016-08-26T06:45:42.102Z,540
2016-08-26T06:46:41.947Z,600
2016-08-26T06:47:42.140Z,390
2016-08-26T06:48:42.886Z,670
2016-08-26T06:49:42.150Z,705
2016-08-26T06:50:42.875Z,660
2016-08-26T06:51:42.228Z,770
2016-08-26T06:52:42.181Z,755
2016-08-26T06:53:43.050Z,725
2016-08-26T06:54:42.913Z,530
2016-08-26T06:55:43.986Z,625
2016-08-26T06:56:40.915Z,520
2016-08-26T06:57:42.185Z,385
2016-08-26T06:58:42.376Z,325
2016-08-26T06:59:40.847Z,400
2016-08-26T07:00:41.651Z,480
2016-08-26T09:53:06.657Z,75
2016-08-26T09:54:05.572Z,75
2016-08-26T09:55:05.776Z,80
2016-08-26T09:56:04.362Z,80
2016-08-26T09:57:04.144Z,80
2016-08-26T09:58:03.445Z,80
2016-08-26T09:59:05.580Z,75
2016-08-26T10:00:02.953Z,75
2016-08-26T10:01:04.887Z,75
2016-08-26T10:02:05.290Z,75
2016-08-26T10:03:04.188Z,75
2016-08-26T10:04:04.905Z,75
2016-08-26T10:05:04.372Z,75
2016-08-26T10:06:05.104Z,75
2016-08-26T10:07:04.222Z,75
2016-08-26T10:08:04.935Z,75
2016-08-26T10:09:03.530Z,75
2016-08-26T10:10:04.255Z,75
2016-08-26T10:11:05.260Z,75
2016-08-26T10:12:04.448Z,65
2016-08-26T10:13:06.237Z,70
2016-08-26T10:14:02.860Z,65
2016-08-26T10:15:04.288Z,65
2016-08-26T10:16:05.254Z,60
2016-08-26T10:17:04.145Z,55
2016-08-26T10:18:05.020Z,55
2016-08-26T10:19:05.029Z,50
2016-08-26T10:20:04.379Z,50
2016-08-26T10:21:05.801Z,55
2016-08-26T10:22:05.056Z,65
2016-08-26T10:23:05.060Z,70
2016-08-26T10:24:06.783Z,75
2016-08-26T10:25:04.725Z,75
2016-08-26T10:26:05.857Z,75
2016-08-26T10:27:02.994Z,75
2016-08-26T10:28:03.693Z,75
2016-08-26T10:29:05.118Z,65
2016-08-26T10:30:04.421Z,55
2016-08-26T10:31:03.722Z,70
2016-08-26T10:32:04.441Z,70
2016-08-26T10:33:04.897Z,65
2016-08-26T10:34:04.453Z,70
2016-08-26T10:35:05.162Z,70
2016-08-26T10:36:03.765Z,75
2016-08-26T10:37:04.480Z,75
2016-08-26T10:38:05.194Z,75
2016-08-26T10:39:05.228Z,70
2016-08-26T10:40:05.918Z,75
2016-08-26T10:41:04.562Z,70
2016-08-26T10:42:05.941Z,70
2016-08-26T10:43:04.700Z,70
2016-08-26T10:44:07.343Z,70
2016-08-26T10:45:03.944Z,70
2016-08-26T10:46:04.974Z,70
2016-08-26T10:47:05.288Z,70
2016-08-26T10:48:04.576Z,70
2016-08-26T10:49:03.884Z,70
2016-08-26T10:50:04.601Z,70
2016-08-26T10:51:06.012Z,70
2016-08-26T10:52:04.657Z,70
2016-08-26T10:53:04.654Z,70
2016-08-26T10:54:04.735Z,70
2016-08-26T10:55:06.301Z,70
2016-08-26T10:56:05.355Z,70
2016-08-26T10:57:06.648Z,70
2016-08-26T10:58:05.368Z,65
2016-08-26T10:59:04.012Z,65
2016-08-26T11:00:05.389Z,65
2016-08-26T11:01:06.101Z,65
2016-08-26T11:02:05.402Z,70
2016-08-26T11:03:05.408Z,70
2016-08-26T11:04:04.002Z,70
2016-08-26T11:05:05.430Z,65
2016-08-26T11:06:04.737Z,65
2016-08-26T11:07:04.022Z,65
2016-08-26T11:08:06.327Z,65
2016-08-26T11:09:03.391Z,65
2016-08-26T11:10:05.311Z,65
2016-08-26T11:11:06.191Z,65
2016-08-26T11:12:05.483Z,65
2016-08-26T11:13:04.790Z,65
2016-08-26T11:14:04.089Z,65
2016-08-26T11:15:04.798Z,65
2016-08-26T11:16:04.815Z,65
2016-08-26T11:17:03.672Z,70
2016-08-26T11:18:06.244Z,65
2016-08-26T11:19:08.196Z,70
2016-08-26T11:20:04.136Z,70
2016-08-26T11:21:04.950Z,70
2016-08-26T11:22:04.152Z,70
2016-08-26T11:23:04.868Z,70
2016-08-26T11:24:05.583Z,70
2016-08-26T11:25:34.636Z,65
2016-08-26T11:26:18.470Z,65
2016-08-26T11:27:04.292Z,65
2016-08-26T11:28:07.434Z,65
2016-08-26T11:29:05.650Z,65
2016-08-26T11:30:07.842Z,70
2016-08-26T11:31:04.242Z,70
2016-08-26T11:32:05.290Z,65
2016-08-26T11:33:04.247Z,65
2016-08-26T11:34:05.666Z,65
2016-08-26T11:35:04.312Z,65
2016-08-26T11:36:06.386Z,65
2016-08-26T11:37:05.693Z,65
2016-08-26T11:38:04.994Z,65
2016-08-26T11:39:07.469Z,65
2016-08-26T11:40:04.308Z,65
2016-08-26T11:41:06.368Z,65
2016-08-26T11:42:05.025Z,65
2016-08-26T11:43:05.139Z,60
2016-08-26T11:44:04.335Z,60
2016-08-26T11:45:05.761Z,60
2016-08-26T11:46:05.837Z,60
2016-08-26T11:47:05.063Z,60
2016-08-26T11:48:06.491Z,60
2016-08-26T11:49:04.367Z,55
2016-08-26T11:50:06.959Z,60
2016-08-26T11:51:05.097Z,60
2016-08-26T11:52:05.102Z,60
2016-08-26T11:53:04.408Z,60
2016-08-26T11:54:07.488Z,60
2016-08-26T11:55:04.575Z,60
2016-08-26T11:56:04.434Z,60
2016-08-26T11:57:05.159Z,60
2016-08-26T11:58:06.061Z,60
2016-08-26T11:59:03.755Z,60
2016-08-26T12:00:05.177Z,60
2016-08-26T12:01:05.888Z,60
2016-08-26T12:02:06.610Z,60
2016-08-26T12:03:04.494Z,60
2016-08-26T12:04:04.502Z,60
2016-08-26T12:05:06.219Z,60
2016-08-26T12:06:03.815Z,60
2016-08-26T12:07:05.235Z,55
2016-08-26T12:08:04.587Z,55
2016-08-26T12:09:04.549Z,55
2016-08-26T12:10:05.331Z,55
2016-08-26T12:11:06.689Z,55
2016-08-26T12:12:05.988Z,55
2016-08-26T12:13:06.339Z,55
2016-08-26T12:14:07.669Z,55
2016-08-26T12:15:06.120Z,55
2016-08-26T12:16:05.991Z,55
2016-08-26T12:17:05.337Z,55
2016-08-26T12:18:05.335Z,55
2016-08-26T12:19:04.633Z,55
2016-08-26T12:20:05.359Z,50
2016-08-26T12:21:04.661Z,55
2016-08-26T12:22:04.663Z,55
2016-08-26T12:23:05.630Z,55
2016-08-26T12:24:06.092Z,55
2016-08-26T12:25:06.888Z,55
2016-08-26T12:26:06.115Z,55
2016-08-26T12:27:05.763Z,50
2016-08-26T12:28:05.433Z,55
2016-08-26T12:29:05.434Z,50
2016-08-26T12:30:05.448Z,50
2016-08-26T12:31:06.160Z,50
2016-08-26T12:32:05.513Z,50
2016-08-26T12:33:04.773Z,50
2016-08-26T12:34:07.564Z,50
2016-08-26T12:35:05.541Z,50
2016-08-26T12:36:06.598Z,50
2016-08-26T12:37:06.266Z,50
2016-08-26T12:39:04.824Z,50
2016-08-26T12:40:05.540Z,50
2016-08-26T12:41:06.249Z,50
2016-08-26T12:42:04.852Z,50
2016-08-26T12:43:04.852Z,50
2016-08-26T12:44:05.626Z,50
2016-08-26T12:45:07.438Z,50
2016-08-26T12:46:05.590Z,50
2016-08-26T12:47:06.955Z,50
2016-08-26T12:48:04.899Z,50
2016-08-26T12:49:05.212Z,50
2016-08-26T12:50:05.631Z,50
2016-08-26T12:51:07.097Z,45
2016-08-26T12:52:05.644Z,50
2016-08-26T12:53:04.242Z,50
2016-08-26T12:54:05.659Z,50
2016-08-26T12:55:06.376Z,50
2016-08-26T12:56:05.771Z,50
2016-08-26T12:57:05.689Z,50
2016-08-26T12:58:06.404Z,50
2016-08-26T12:59:07.118Z,45
2016-08-26T13:00:07.046Z,45
2016-08-26T13:01:05.736Z,45
2016-08-26T13:02:05.743Z,45
2016-08-26T13:03:05.739Z,45
2016-08-26T13:04:05.043Z,45
2016-08-26T13:05:07.223Z,45
2016-08-26T13:06:06.479Z,45
2016-08-26T13:07:05.615Z,45
2016-08-26T13:08:05.785Z,45
2016-08-26T13:09:05.951Z,45
2016-08-26T13:10:05.105Z,45
2016-08-26T13:11:06.791Z,45
2016-08-26T13:12:05.817Z,45
2016-08-26T13:13:05.829Z,45
2016-08-26T13:14:06.549Z,45
2016-08-26T13:15:05.846Z,45
2016-08-26T13:16:05.904Z,45
2016-08-26T13:17:05.864Z,45
2016-08-26T13:18:07.334Z,45
2016-08-26T13:19:06.589Z,45
2016-08-26T13:20:07.697Z,45
2016-08-26T13:21:06.605Z,45
2016-08-26T13:22:07.219Z,45
2016-08-26T13:23:07.332Z,45
2016-08-26T13:24:06.631Z,45
2016-08-26T13:25:06.693Z,45
2016-08-26T13:26:07.706Z,45
2016-08-26T13:27:06.673Z,45
2016-08-26T13:28:05.961Z,45
2016-08-26T13:29:06.677Z,45
2016-08-26T13:30:06.689Z,45
2016-08-26T13:31:07.818Z,45
2016-08-26T13:32:06.707Z,45
2016-08-26T13:33:07.420Z,45
2016-08-26T13:34:05.317Z,45
2016-08-26T13:35:05.322Z,45
2016-08-26T13:36:04.729Z,45
2016-08-26T13:37:06.751Z,45
2016-08-26T13:38:06.198Z,45
2016-08-26T13:39:07.473Z,45
2016-08-26T13:40:05.408Z,45
2016-08-26T13:41:06.084Z,45
2016-08-26T13:42:06.896Z,45
2016-08-26T13:43:04.736Z,45
2016-08-26T13:44:08.633Z,45
2016-08-26T13:45:06.130Z,45
2016-08-26T13:46:06.122Z,45
2016-08-26T13:47:06.127Z,45
2016-08-26T13:48:06.134Z,40
2016-08-26T13:49:06.154Z,40
2016-08-26T13:50:05.455Z,40
2016-08-26T13:51:06.169Z,40
2016-08-26T13:52:06.884Z,45
2016-08-26T13:53:07.620Z,45
2016-08-26T13:54:07.621Z,45
2016-08-26T13:55:06.407Z,45
2016-08-26T13:56:07.629Z,40
2016-08-26T13:57:05.514Z,40
2016-08-26T13:58:04.813Z,45
2016-08-26T13:59:05.533Z,45
2016-08-26T14:00:07.014Z,45
2016-08-26T14:01:05.552Z,45
2016-08-26T14:02:06.268Z,45
2016-08-26T14:03:06.979Z,45
2016-08-26T14:04:06.929Z,45
2016-08-26T14:05:06.293Z,45
2016-08-26T14:06:05.641Z,45
2016-08-26T14:07:07.015Z,45
2016-08-26T14:08:07.023Z,40
2016-08-26T14:09:06.327Z,40
2016-08-26T14:10:06.335Z,40
2016-08-26T14:11:04.927Z,40
2016-08-26T14:12:07.052Z,40
2016-08-26T14:13:07.781Z,40
2016-08-26T14:14:07.089Z,40
2016-08-26T14:15:06.626Z,40
2016-08-26T14:16:05.673Z,40
2016-08-26T14:17:06.457Z,40
2016-08-26T14:18:05.691Z,40
2016-08-26T14:19:06.407Z,40
2016-08-26T14:20:07.139Z,45
2016-08-26T14:21:06.472Z,45
2016-08-26T14:22:07.147Z,45
2016-08-26T14:23:06.594Z,40
2016-08-26T14:24:05.738Z,40
2016-08-26T14:25:07.265Z,40
2016-08-26T14:26:07.178Z,40
2016-08-26T14:27:07.192Z,40
2016-08-26T14:28:06.489Z,40
2016-08-26T14:29:07.198Z,40
2016-08-26T14:30:06.658Z,40
2016-08-26T14:31:06.507Z,40
2016-08-26T14:32:06.522Z,40
2016-08-26T14:33:06.531Z,40
2016-08-26T14:34:06.543Z,40
2016-08-26T14:35:07.305Z,40
2016-08-26T14:36:06.617Z,40
2016-08-26T14:37:07.270Z,40
2016-08-26T14:38:06.029Z,40
2016-08-26T14:39:08.278Z,40
2016-08-26T14:40:06.609Z,40
2016-08-26T14:41:07.319Z,45
2016-08-26T14:42:06.610Z,45
2016-08-26T14:43:05.958Z,45
2016-08-26T14:44:05.924Z,45
2016-08-26T14:45:07.339Z,45
2016-08-26T14:46:07.348Z,45
2016-08-26T14:47:06.659Z,45
2016-08-26T14:48:08.680Z,50
2016-08-26T14:49:07.380Z,45
2016-08-26T14:50:08.459Z,45
2016-08-26T14:51:07.390Z,50
2016-08-26T14:52:06.694Z,50
2016-08-26T14:53:06.712Z,50
2016-08-26T14:54:07.415Z,50
2016-08-26T14:55:08.192Z,50
2016-08-26T14:56:08.241Z,50
2016-08-26T14:57:06.736Z,50
2016-08-26T14:58:06.794Z,50
2016-08-26T14:59:06.755Z,50
2016-08-26T15:00:07.475Z,50
2016-08-26T15:01:08.319Z,45
2016-08-26T15:02:08.197Z,45
2016-08-26T15:03:08.210Z,45
2016-08-26T15:04:07.513Z,45
2016-08-26T15:05:08.284Z,45
2016-08-26T15:06:06.110Z,40
2016-08-26T15:07:06.825Z,40
2016-08-26T15:08:06.829Z,40
2016-08-26T15:09:08.322Z,40
2016-08-26T15:10:06.493Z,40
2016-08-26T15:11:07.561Z,35
2016-08-26T15:12:08.727Z,35
2016-08-26T15:13:08.291Z,35
2016-08-26T15:14:07.087Z,35
2016-08-26T15:15:07.605Z,35
2016-08-26T15:16:06.904Z,35
2016-08-26T15:17:06.910Z,35
2016-08-26T15:18:07.626Z,35
2016-08-26T15:19:06.926Z,35
2016-08-26T15:20:08.356Z,35
2016-08-26T15:21:08.328Z,35
2016-08-26T15:22:07.660Z,35
2016-08-26T15:23:08.665Z,35
2016-08-26T15:24:07.781Z,35
2016-08-26T15:25:06.980Z,35
2016-08-26T15:26:06.279Z,35
2016-08-26T15:27:07.704Z,35
2016-08-26T15:28:06.298Z,35
2016-08-26T15:29:06.306Z,40
2016-08-26T15:30:07.728Z,40
2016-08-26T15:31:08.445Z,40
2016-08-26T15:32:08.366Z,40
2016-08-26T15:33:06.340Z,40
2016-08-26T15:34:08.617Z,40
2016-08-26T15:35:07.779Z,40
2016-08-26T15:36:09.641Z,40
2016-08-26T15:37:07.135Z,35
2016-08-26T15:38:07.801Z,35
2016-08-26T15:39:07.817Z,35
2016-08-26T15:40:07.885Z,35
2016-08-26T15:41:07.168Z,35
2016-08-26T15:42:07.136Z,35
2016-08-26T15:43:10.626Z,35
2016-08-26T15:44:07.140Z,30
2016-08-26T15:45:08.064Z,30
2016-08-26T15:46:07.220Z,30
2016-08-26T15:47:09.284Z,30
2016-08-26T15:48:07.186Z,30
2016-08-26T15:49:07.188Z,30
2016-08-26T15:50:07.910Z,30
2016-08-26T15:51:08.635Z,30
2016-08-26T15:52:07.928Z,30
2016-08-26T15:53:07.225Z,30
2016-08-26T15:54:08.383Z,30
2016-08-26T15:55:07.249Z,30
2016-08-26T15:56:07.254Z,30
2016-08-26T15:57:07.972Z,30
2016-08-26T15:58:07.278Z,30
2016-08-26T15:59:06.575Z,30
2016-08-26T16:00:07.287Z,30
2016-08-26T16:01:06.596Z,30
2016-08-26T16:02:07.306Z,30
2016-08-26T16:03:08.726Z,30
2016-08-26T16:04:07.334Z,30
2016-08-26T16:05:09.038Z,30
2016-08-26T16:06:08.052Z,30
2016-08-26T16:07:10.139Z,30
2016-08-26T16:08:07.358Z,30
2016-08-26T16:09:08.939Z,30
2016-08-26T16:10:08.095Z,30
2016-08-26T16:11:08.088Z,30
2016-08-26T16:12:08.105Z,30
2016-08-26T16:13:07.416Z,30
2016-08-26T16:14:06.712Z,30
2016-08-26T16:15:08.140Z,30
2016-08-26T16:16:08.347Z,30
2016-08-26T16:17:07.436Z,25
2016-08-26T16:18:10.141Z,25
2016-08-26T16:19:07.459Z,25
2016-08-26T16:20:06.827Z,25
2016-08-26T16:21:07.479Z,25
2016-08-26T16:22:07.497Z,25
2016-08-26T16:23:08.909Z,25
2016-08-26T16:24:07.503Z,25
2016-08-26T16:25:07.665Z,25
2016-08-26T16:26:08.942Z,25
2016-08-26T16:27:07.533Z,20
2016-08-26T16:28:08.244Z,20
2016-08-26T16:29:07.148Z,20
2016-08-26T16:30:06.860Z,20
2016-08-26T16:31:09.034Z,20
2016-08-26T16:32:06.878Z,25
2016-08-26T16:33:08.286Z,25
2016-08-26T16:34:06.882Z,20
2016-08-26T16:35:07.600Z,25
2016-08-26T16:36:09.022Z,25
2016-08-26T16:37:09.032Z,25
2016-08-26T16:38:07.314Z,25
2016-08-26T16:39:06.220Z,25
2016-08-26T16:40:09.628Z,20
2016-08-26T16:41:06.947Z,20
2016-08-26T16:42:06.964Z,20
2016-08-26T16:43:06.328Z,20
2016-08-26T16:44:07.678Z,20
2016-08-26T16:45:07.735Z,15
2016-08-26T16:46:07.709Z,15
2016-08-26T16:47:06.292Z,15
2016-08-26T16:48:08.419Z,15
2016-08-26T16:49:07.724Z,15
2016-08-26T16:50:07.734Z,15
2016-08-26T16:51:09.677Z,15
2016-08-26T16:52:07.750Z,15
2016-08-26T16:53:08.713Z,15
2016-08-26T16:54:07.773Z,15
2016-08-26T16:55:08.065Z,15
2016-08-26T16:56:08.494Z,15
2016-08-26T16:57:08.501Z,15
2016-08-26T16:58:07.848Z,15
2016-08-26T16:59:08.532Z,15
2016-08-26T17:00:09.825Z,15
2016-08-26T17:01:07.842Z,15
2016-08-26T17:02:09.593Z,15
2016-08-26T17:03:07.844Z,15
2016-08-26T17:04:08.508Z,15
2016-08-26T17:05:08.586Z,15
2016-08-26T17:06:07.883Z,15
2016-08-26T17:07:08.587Z,15
2016-08-26T17:08:07.903Z,15
2016-08-26T17:09:07.899Z,15
2016-08-26T17:10:07.208Z,15
2016-08-26T17:11:07.913Z,15
2016-08-26T17:12:07.925Z,15
2016-08-26T17:13:09.450Z,15
2016-08-26T17:14:08.652Z,15
2016-08-26T17:15:06.545Z,15
2016-08-26T17:16:08.667Z,15
2016-08-26T17:17:08.674Z,15